createdAt,value
2023-02-13T00:04:51.544Z,13.80
2023-02-13T00:09:55.733Z,13.60
2023-02-13T00:14:59.147Z,12.20
2023-02-13T00:20:02.019Z,13.20
2023-02-13T00:25:07.075Z,13.20
2023-02-13T00:30:10.881Z,11.60
2023-02-13T00:35:13.921Z,12.00
2023-02-13T00:40:18.124Z,15.00
2023-02-13T00:45:20.951Z,12.20
2023-02-13T00:50:23.703Z,13.00
2023-02-13T00:55:27.851Z,10.80
2023-02-13T01:00:30.680Z,11.00
2023-02-13T01:05:33.629Z,11.80
2023-02-13T01:10:38.236Z,11.40
2023-02-13T01:15:41.572Z,13.00
2023-02-13T01:20:44.842Z,13.00
2023-02-13T01:25:51.535Z,11.00
2023-02-13T01:30:55.589Z,12.60
2023-02-13T01:36:00.290Z,11.00
2023-02-13T01:41:05.275Z,12.00
2023-02-13T01:46:08.507Z,11.60
2023-02-13T01:51:13.042Z,11.20
2023-02-13T01:56:20.702Z,11.40
2023-02-13T02:01:23.892Z,10.00
2023-02-13T02:06:29.223Z,11.20
2023-02-13T02:11:37.132Z,10.00
2023-02-13T02:16:41.101Z,10.00
2023-02-13T02:22:00.763Z,11.40
2023-02-13T02:27:33.438Z,10.00
2023-02-13T02:32:46.122Z,10.00
2023-02-13T02:37:57.050Z,8.00
2023-02-13T02:43:09.978Z,10.00
2023-02-13T02:48:36.789Z,8.80
2023-02-13T02:53:40.972Z,10.40
2023-02-13T02:59:03.832Z,8.60
2023-02-13T03:04:34.044Z,8.00
2023-02-13T03:09:56.051Z,8.00
2023-02-13T03:14:58.910Z,11.00
2023-02-13T03:20:28.730Z,9.40
2023-02-13T03:25:35.073Z,8.20
2023-02-13T03:30:44.761Z,8.00
2023-02-13T03:36:13.319Z,8.20
2023-02-13T03:41:20.886Z,9.20
2023-02-13T03:46:23.728Z,7.40
2023-02-13T03:51:29.505Z,7.60
2023-02-13T03:56:50.029Z,8.00
2023-02-13T04:01:58.416Z,8.20
2023-02-13T04:07:03.652Z,9.60
2023-02-13T04:12:10.260Z,6.40
2023-02-13T04:17:15.090Z,7.20
2023-02-13T04:22:19.492Z,8.80
2023-02-13T04:27:22.398Z,7.00
2023-02-13T04:32:25.164Z,7.00
2023-02-13T04:37:29.344Z,7.00
2023-02-13T04:42:32.221Z,7.40
2023-02-13T04:47:35.112Z,8.00
2023-02-13T04:52:39.426Z,8.00
2023-02-13T04:57:42.197Z,8.60
2023-02-13T05:02:45.001Z,6.80
2023-02-13T05:07:49.116Z,8.20
2023-02-13T05:12:52.022Z,8.20
2023-02-13T05:17:54.794Z,7.80
2023-02-13T05:23:17.506Z,6.20
2023-02-13T05:28:37.714Z,7.20
2023-02-13T05:33:40.693Z,7.00
2023-02-13T05:38:44.875Z,7.00
2023-02-13T05:43:47.799Z,6.40
2023-02-13T05:48:50.698Z,6.00
2023-02-13T05:53:54.788Z,6.00
2023-02-13T05:58:57.605Z,6.00
2023-02-13T06:04:03.423Z,6.20
2023-02-13T06:09:08.377Z,6.00
2023-02-13T06:14:12.052Z,6.00
2023-02-13T06:19:14.866Z,7.20
2023-02-13T06:24:19.100Z,5.20
2023-02-13T06:29:22.021Z,5.00
2023-02-13T06:34:24.810Z,6.00
2023-02-13T06:39:28.965Z,6.20
2023-02-13T06:44:31.798Z,6.00
2023-02-13T06:49:34.599Z,6.00
2023-02-13T06:54:47.359Z,5.20
2023-02-13T06:59:50.671Z,5.60
2023-02-13T07:04:53.555Z,6.60
2023-02-13T07:09:57.650Z,5.00
2023-02-13T07:15:00.661Z,5.40
2023-02-13T07:20:04.478Z,5.00
2023-02-13T07:25:09.383Z,5.20
2023-02-13T07:30:13.026Z,5.00
2023-02-13T07:35:15.882Z,5.00
2023-02-13T07:40:20.304Z,6.20
2023-02-13T07:45:23.161Z,5.00
2023-02-13T07:50:26.072Z,5.20
2023-02-13T07:55:30.451Z,5.40
2023-02-13T08:00:33.292Z,5.00
2023-02-13T08:05:36.009Z,3.40
2023-02-13T08:10:58.064Z,4.00
2023-02-13T08:16:00.909Z,5.00
2023-02-13T08:21:03.810Z,3.80
2023-02-13T08:26:07.955Z,4.60
2023-02-13T08:31:12.150Z,3.20
2023-02-13T08:36:14.955Z,4.40
2023-02-13T08:41:20.856Z,3.20
2023-02-13T08:46:23.816Z,4.00
2023-02-13T08:51:26.684Z,3.80
2023-02-13T08:56:30.856Z,3.80
2023-02-13T09:01:33.730Z,3.20
2023-02-13T09:06:36.543Z,3.80
2023-02-13T09:11:40.785Z,8.20
2023-02-13T09:16:43.602Z,12.00
2023-02-13T09:21:46.444Z,10.60
2023-02-13T09:26:50.578Z,11.00
2023-02-13T09:31:53.700Z,8.80
2023-02-13T09:36:56.466Z,7.00
2023-02-13T09:42:00.728Z,6.00
2023-02-13T09:47:06.466Z,6.00
2023-02-13T09:52:09.261Z,5.80
2023-02-13T09:57:17.871Z,5.00
2023-02-13T10:02:36.710Z,5.00
2023-02-13T10:07:42.498Z,5.00
2023-02-13T10:13:04.976Z,4.00
2023-02-13T10:18:11.550Z,4.20
2023-02-13T10:23:19.685Z,4.60
2023-02-13T10:28:30.104Z,3.80
2023-02-13T10:33:35.146Z,2.80
2023-02-13T10:38:51.308Z,3.80
2023-02-13T10:44:03.362Z,2.00
2023-02-13T10:49:21.935Z,3.20
2023-02-13T10:54:35.417Z,2.60
2023-02-13T10:59:55.142Z,3.20
2023-02-13T11:05:00.321Z,3.80
2023-02-13T11:10:07.123Z,3.60
2023-02-13T11:15:26.712Z,2.20
2023-02-13T11:20:32.848Z,2.00
2023-02-13T11:25:35.860Z,3.80
2023-02-13T11:30:40.154Z,4.60
2023-02-13T11:35:42.957Z,2.80
2023-02-13T11:40:47.615Z,2.60
2023-02-13T11:46:06.679Z,2.00
2023-02-13T11:51:09.446Z,2.60
2023-02-13T11:56:13.491Z,3.40
2023-02-13T12:01:28.598Z,3.00
2023-02-13T12:06:31.601Z,3.00
2023-02-13T12:11:38.017Z,3.80
2023-02-13T12:16:43.474Z,5.00
2023-02-13T12:21:56.959Z,2.00
2023-02-13T12:27:01.180Z,10.00
2023-02-13T12:32:11.935Z,16.60
2023-02-13T12:37:20.321Z,13.20
2023-02-13T12:42:32.641Z,11.00
2023-02-13T12:47:38.557Z,10.60
2023-02-13T12:52:47.078Z,10.80
2023-02-13T12:57:57.488Z,8.80
2023-02-13T13:03:19.014Z,8.20
2023-02-13T13:08:34.914Z,7.60
2023-02-13T13:13:44.061Z,9.00
2023-02-13T13:18:54.208Z,6.00
2023-02-13T13:24:00.990Z,8.20
2023-02-13T13:29:06.444Z,6.40
2023-02-13T13:34:23.710Z,8.00
2023-02-13T13:39:33.718Z,56.67
2023-02-13T13:44:44.795Z,108.50
2023-02-13T13:49:52.714Z,148.25
2023-02-13T13:54:56.849Z,188.75
2023-02-13T14:00:18.406Z,216.00
2023-02-13T14:05:27.574Z,241.00
2023-02-13T14:11:00.249Z,206.75
2023-02-13T14:16:03.591Z,173.00
2023-02-13T14:21:07.770Z,181.33
2023-02-13T14:26:19.042Z,170.00
2023-02-13T14:31:23.605Z,159.75
2023-02-13T14:36:32.239Z,148.00
2023-02-13T14:41:58.738Z,146.75
2023-02-13T14:47:04.225Z,134.00
2023-02-13T14:52:10.671Z,128.00
2023-02-13T14:57:16.273Z,126.75
2023-02-13T15:02:22.777Z,129.25
2023-02-13T15:07:27.893Z,127.25
2023-02-13T15:12:31.891Z,121.50
2023-02-13T15:17:38.512Z,112.75
2023-02-13T15:22:43.510Z,120.75
2023-02-13T15:27:46.475Z,118.25
2023-02-13T15:32:55.132Z,113.25
2023-02-13T15:37:59.304Z,111.00
2023-02-13T15:43:02.298Z,112.50
2023-02-13T15:48:05.278Z,108.00
2023-02-13T15:53:13.663Z,112.50
2023-02-13T15:58:16.553Z,101.50
2023-02-13T16:03:19.535Z,106.50
2023-02-13T16:08:31.777Z,106.50
2023-02-13T16:13:34.587Z,100.25
2023-02-13T16:18:37.390Z,105.00
2023-02-13T16:23:41.831Z,100.00
2023-02-13T16:28:46.946Z,102.00
2023-02-13T16:33:49.819Z,99.00
2023-02-13T16:38:54.194Z,100.25
2023-02-13T16:43:57.438Z,97.50
2023-02-13T16:49:06.799Z,97.00
2023-02-13T16:54:19.157Z,96.25
2023-02-13T16:59:33.337Z,93.50
2023-02-13T17:04:39.254Z,91.00
2023-02-13T17:09:43.396Z,94.25
2023-02-13T17:14:46.819Z,91.50
2023-02-13T17:19:49.724Z,91.50
2023-02-13T17:24:53.985Z,87.00
2023-02-13T17:29:56.852Z,90.75
2023-02-13T17:34:59.606Z,77.75
2023-02-13T17:40:03.755Z,77.75
2023-02-13T17:45:06.971Z,76.25
2023-02-13T17:50:10.985Z,72.25
2023-02-13T17:55:18.372Z,73.25
2023-02-13T18:00:21.681Z,67.00
2023-02-13T18:05:24.556Z,67.25
2023-02-13T18:10:29.529Z,65.75
2023-02-13T18:15:32.783Z,63.00
2023-02-13T18:20:35.728Z,65.00
2023-02-13T18:25:39.820Z,61.00
2023-02-13T18:30:43.035Z,59.00
2023-02-13T18:35:45.961Z,60.50
2023-02-13T18:40:50.153Z,59.75
2023-02-13T18:45:53.140Z,58.00
2023-02-13T18:50:56.160Z,58.25
2023-02-13T18:56:04.319Z,56.25
2023-02-13T19:01:08.637Z,56.00
2023-02-13T19:06:12.398Z,54.00
2023-02-13T19:11:17.374Z,51.67
2023-02-13T19:16:20.369Z,55.00
2023-02-13T19:21:24.112Z,51.67
2023-02-13T19:26:28.266Z,53.00
2023-02-13T19:31:32.954Z,51.00
2023-02-13T19:36:35.856Z,50.67
2023-02-13T19:41:40.849Z,52.67
2023-02-13T19:46:43.719Z,49.67
2023-02-13T19:51:47.271Z,48.67
2023-02-13T19:56:51.452Z,48.00
2023-02-13T20:01:54.428Z,51.00
2023-02-13T20:06:58.328Z,49.33
2023-02-13T20:12:02.522Z,49.33
2023-02-13T20:17:06.209Z,47.33
2023-02-13T20:22:08.937Z,50.67
2023-02-13T20:27:13.253Z,47.67
2023-02-13T20:32:16.329Z,47.67
2023-02-13T20:37:19.219Z,48.00
2023-02-13T20:42:23.463Z,46.00
2023-02-13T20:47:26.520Z,48.67
2023-02-13T20:52:29.298Z,46.00
2023-02-13T20:57:35.325Z,48.00
2023-02-13T21:02:38.296Z,44.00
2023-02-13T21:07:43.536Z,44.33
2023-02-13T21:12:47.747Z,45.00
2023-02-13T21:17:50.710Z,48.33
2023-02-13T21:22:53.641Z,44.00
2023-02-13T21:27:57.793Z,45.50
2023-02-13T21:33:00.576Z,44.33
2023-02-13T21:38:03.439Z,46.00
2023-02-13T21:43:07.630Z,44.75
2023-02-13T21:48:10.594Z,43.50
2023-02-13T21:53:13.587Z,41.00
2023-02-13T21:58:17.788Z,40.50
2023-02-13T22:03:20.745Z,40.75
2023-02-13T22:08:23.564Z,40.75
2023-02-13T22:13:27.816Z,43.50
2023-02-13T22:18:31.685Z,40.75
2023-02-13T22:23:36.655Z,41.25
2023-02-13T22:28:40.995Z,41.00
2023-02-13T22:33:47.538Z,39.25
2023-02-13T22:38:52.949Z,39.00
2023-02-13T22:43:57.251Z,40.00
2023-02-13T22:49:00.043Z,38.50
2023-02-13T22:54:02.981Z,38.50
2023-02-13T22:59:07.239Z,38.00
2023-02-13T23:04:10.103Z,36.75
2023-02-13T23:09:12.938Z,36.25
2023-02-13T23:14:17.068Z,39.75
2023-02-13T23:19:20.452Z,37.50
2023-02-13T23:24:23.344Z,36.50
2023-02-13T23:29:27.604Z,37.75
2023-02-13T23:34:30.410Z,37.00
2023-02-13T23:39:33.177Z,33.50
2023-02-13T23:44:37.430Z,36.00
2023-02-13T23:49:40.251Z,36.00
2023-02-13T23:54:43.495Z,37.00
2023-02-13T23:59:47.601Z,35.50
